sensor_id;sensor_type;location;lat;lon;timestamp;P1;durP1;ratioP1;P2;durP2;ratioP2
20318;SDS011;10317;47.254;11.314;2022-07-29T00:01:21;6.90;;;3.20;;
20318;SDS011;10317;47.254;11.314;2022-07-29T00:03:46;3.17;;;2.90;;
20318;SDS011;10317;47.254;11.314;2022-07-29T00:06:13;3.90;;;2.97;;
20318;SDS011;10317;47.254;11.314;2022-07-29T00:08:39;3.28;;;3.08;;
20318;SDS011;10317;47.254;11.314;2022-07-29T00:11:05;3.40;;;3.08;;
20318;SDS011;10317;47.254;11.314;2022-07-29T00:13:30;5.72;;;3.45;;
20318;SDS011;10317;47.254;11.314;2022-07-29T00:15:56;5.05;;;3.17;;
20318;SDS011;10317;47.254;11.314;2022-07-29T00:18:22;4.78;;;3.17;;
20318;SDS011;10317;47.254;11.314;2022-07-29T00:20:47;3.67;;;2.95;;
20318;SDS011;10317;47.254;11.314;2022-07-29T00:23:13;3.67;;;3.38;;
20318;SDS011;10317;47.254;11.314;2022-07-29T00:25:39;3.78;;;2.85;;
20318;SDS011;10317;47.254;11.314;2022-07-29T00:28:04;3.22;;;2.95;;
20318;SDS011;10317;47.254;11.314;2022-07-29T00:30:30;3.00;;;2.72;;
20318;SDS011;10317;47.254;11.314;2022-07-29T00:32:56;3.10;;;2.88;;
20318;SDS011;10317;47.254;11.314;2022-07-29T00:35:22;4.55;;;2.80;;
20318;SDS011;10317;47.254;11.314;2022-07-29T00:38:06;2.45;;;2.35;;
20318;SDS011;10317;47.254;11.314;2022-07-29T00:40:32;3.13;;;2.92;;
20318;SDS011;10317;47.254;11.314;2022-07-29T00:42:57;3.33;;;3.05;;
20318;SDS011;10317;47.254;11.314;2022-07-29T00:45:23;3.20;;;3.00;;
20318;SDS011;10317;47.254;11.314;2022-07-29T00:47:49;4.13;;;3.10;;
20318;SDS011;10317;47.254;11.314;2022-07-29T00:50:15;3.92;;;3.53;;
20318;SDS011;10317;47.254;11.314;2022-07-29T00:52:41;3.28;;;3.05;;
20318;SDS011;10317;47.254;11.314;2022-07-29T00:55:09;3.00;;;2.80;;
20318;SDS011;10317;47.254;11.314;2022-07-29T00:57:40;3.00;;;2.80;;
20318;SDS011;10317;47.254;11.314;2022-07-29T01:00:08;3.08;;;2.90;;
20318;SDS011;10317;47.254;11.314;2022-07-29T01:02:36;3.38;;;3.08;;
20318;SDS011;10317;47.254;11.314;2022-07-29T01:05:02;4.00;;;3.70;;
20318;SDS011;10317;47.254;11.314;2022-07-29T01:07:29;3.25;;;2.95;;
20318;SDS011;10317;47.254;11.314;2022-07-29T01:09:56;3.67;;;3.38;;
20318;SDS011;10317;47.254;11.314;2022-07-29T01:12:27;3.55;;;2.95;;
20318;SDS011;10317;47.254;11.314;2022-07-29T01:14:57;4.15;;;2.90;;
20318;SDS011;10317;47.254;11.314;2022-07-29T01:17:26;3.00;;;2.80;;
20318;SDS011;10317;47.254;11.314;2022-07-29T01:20:07;3.55;;;2.33;;
20318;SDS011;10317;47.254;11.314;2022-07-29T01:31:19;2.90;;;2.70;;
20318;SDS011;10317;47.254;11.314;2022-07-29T01:33:50;3.25;;;2.28;;
20318;SDS011;10317;47.254;11.314;2022-07-29T01:36:25;3.05;;;2.85;;
20318;SDS011;10317;47.254;11.314;2022-07-29T01:39:30;3.85;;;2.78;;
20318;SDS011;10317;47.254;11.314;2022-07-29T01:42:34;3.08;;;2.72;;
20318;SDS011;10317;47.254;11.314;2022-07-29T01:48:03;2.75;;;2.55;;
20318;SDS011;10317;47.254;11.314;2022-07-29T01:50:52;3.03;;;2.72;;
20318;SDS011;10317;47.254;11.314;2022-07-29T01:53:33;3.05;;;2.75;;
20318;SDS011;10317;47.254;11.314;2022-07-29T01:56:03;2.90;;;2.70;;
20318;SDS011;10317;47.254;11.314;2022-07-29T01:58:29;3.03;;;2.83;;
20318;SDS011;10317;47.254;11.314;2022-07-29T02:00:58;3.33;;;2.85;;
20318;SDS011;10317;47.254;11.314;2022-07-29T02:03:25;2.97;;;2.80;;
20318;SDS011;10317;47.254;11.314;2022-07-29T02:05:52;3.03;;;2.72;;
20318;SDS011;10317;47.254;11.314;2022-07-29T02:08:18;2.63;;;2.53;;
20318;SDS011;10317;47.254;11.314;2022-07-29T02:10:46;3.78;;;2.80;;
20318;SDS011;10317;47.254;11.314;2022-07-29T02:13:13;2.90;;;2.70;;
20318;SDS011;10317;47.254;11.314;2022-07-29T02:15:42;4.38;;;3.20;;
20318;SDS011;10317;47.254;11.314;2022-07-29T02:18:09;3.15;;;2.95;;
20318;SDS011;10317;47.254;11.314;2022-07-29T02:20:39;3.13;;;2.92;;
20318;SDS011;10317;47.254;11.314;2022-07-29T02:23:07;4.80;;;3.03;;
20318;SDS011;10317;47.254;11.314;2022-07-29T02:25:36;3.70;;;3.40;;
20318;SDS011;10317;47.254;11.314;2022-07-29T02:28:04;5.82;;;2.63;;
20318;SDS011;10317;47.254;11.314;2022-07-29T02:30:33;3.30;;;3.10;;
20318;SDS011;10317;47.254;11.314;2022-07-29T02:33:04;3.00;;;2.80;;
20318;SDS011;10317;47.254;11.314;2022-07-29T02:35:31;3.35;;;3.10;;
20318;SDS011;10317;47.254;11.314;2022-07-29T02:37:57;5.00;;;3.22;;
20318;SDS011;10317;47.254;11.314;2022-07-29T02:40:42;3.45;;;3.25;;
20318;SDS011;10317;47.254;11.314;2022-07-29T02:43:09;2.85;;;2.63;;
20318;SDS011;10317;47.254;11.314;2022-07-29T02:45:36;3.15;;;2.83;;
20318;SDS011;10317;47.254;11.314;2022-07-29T02:48:05;3.42;;;3.03;;
20318;SDS011;10317;47.254;11.314;2022-07-29T02:50:37;6.32;;;3.13;;
20318;SDS011;10317;47.254;11.314;2022-07-29T02:53:11;3.42;;;3.13;;
20318;SDS011;10317;47.254;11.314;2022-07-29T02:55:45;4.75;;;2.90;;
20318;SDS011;10317;47.254;11.314;2022-07-29T03:00:56;2.75;;;2.63;;
20318;SDS011;10317;47.254;11.314;2022-07-29T03:03:25;3.40;;;3.00;;
20318;SDS011;10317;47.254;11.314;2022-07-29T03:05:57;2.83;;;2.63;;
20318;SDS011;10317;47.254;11.314;2022-07-29T03:08:24;2.83;;;2.70;;
20318;SDS011;10317;47.254;11.314;2022-07-29T03:10:52;2.90;;;2.75;;
20318;SDS011;10317;47.254;11.314;2022-07-29T03:13:18;4.32;;;2.83;;
20318;SDS011;10317;47.254;11.314;2022-07-29T03:15:45;2.90;;;2.65;;
20318;SDS011;10317;47.254;11.314;2022-07-29T03:18:12;4.60;;;2.70;;
20318;SDS011;10317;47.254;11.314;2022-07-29T03:20:38;3.13;;;2.60;;
20318;SDS011;10317;47.254;11.314;2022-07-29T03:23:04;4.13;;;2.95;;
20318;SDS011;10317;47.254;11.314;2022-07-29T03:25:30;4.25;;;3.13;;
20318;SDS011;10317;47.254;11.314;2022-07-29T03:27:56;4.32;;;3.13;;
20318;SDS011;10317;47.254;11.314;2022-07-29T03:30:22;3.83;;;3.05;;
20318;SDS011;10317;47.254;11.314;2022-07-29T03:32:48;3.28;;;2.85;;
20318;SDS011;10317;47.254;11.314;2022-07-29T03:35:15;3.00;;;2.80;;
20318;SDS011;10317;47.254;11.314;2022-07-29T03:37:44;2.83;;;2.65;;
20318;SDS011;10317;47.254;11.314;2022-07-29T03:40:11;4.20;;;2.60;;
20318;SDS011;10317;47.254;11.314;2022-07-29T03:42:42;5.30;;;2.78;;
20318;SDS011;10317;47.254;11.314;2022-07-29T03:45:13;4.13;;;2.92;;
20318;SDS011;10317;47.254;11.314;2022-07-29T03:47:45;3.40;;;3.10;;
20318;SDS011;10317;47.254;11.314;2022-07-29T03:50:16;3.40;;;3.20;;
20318;SDS011;10317;47.254;11.314;2022-07-29T03:52:44;2.80;;;2.60;;
20318;SDS011;10317;47.254;11.314;2022-07-29T03:55:10;3.08;;;2.67;;
20318;SDS011;10317;47.254;11.314;2022-07-29T03:57:37;2.75;;;2.40;;
20318;SDS011;10317;47.254;11.314;2022-07-29T04:00:04;2.35;;;2.25;;
20318;SDS011;10317;47.254;11.314;2022-07-29T04:02:32;2.20;;;2.00;;
20318;SDS011;10317;47.254;11.314;2022-07-29T04:04:58;2.60;;;2.50;;
20318;SDS011;10317;47.254;11.314;2022-07-29T04:07:24;2.97;;;2.78;;
20318;SDS011;10317;47.254;11.314;2022-07-29T04:09:49;2.38;;;2.28;;
20318;SDS011;10317;47.254;11.314;2022-07-29T04:12:15;2.40;;;2.30;;
20318;SDS011;10317;47.254;11.314;2022-07-29T04:14:41;2.33;;;2.13;;
20318;SDS011;10317;47.254;11.314;2022-07-29T04:17:07;2.78;;;2.38;;
20318;SDS011;10317;47.254;11.314;2022-07-29T04:19:32;2.50;;;2.30;;
20318;SDS011;10317;47.254;11.314;2022-07-29T04:21:58;2.58;;;2.47;;
20318;SDS011;10317;47.254;11.314;2022-07-29T04:24:25;3.38;;;3.17;;
20318;SDS011;10317;47.254;11.314;2022-07-29T04:26:50;2.47;;;2.28;;
20318;SDS011;10317;47.254;11.314;2022-07-29T04:29:17;2.58;;;2.28;;
20318;SDS011;10317;47.254;11.314;2022-07-29T04:31:42;3.15;;;2.30;;
20318;SDS011;10317;47.254;11.314;2022-07-29T04:34:09;2.53;;;2.33;;
20318;SDS011;10317;47.254;11.314;2022-07-29T04:36:35;3.50;;;2.50;;
20318;SDS011;10317;47.254;11.314;2022-07-29T04:39:01;3.00;;;2.80;;
20318;SDS011;10317;47.254;11.314;2022-07-29T04:41:27;3.40;;;3.10;;
20318;SDS011;10317;47.254;11.314;2022-07-29T04:43:53;2.47;;;2.38;;
20318;SDS011;10317;47.254;11.314;2022-07-29T04:46:19;3.90;;;2.85;;
20318;SDS011;10317;47.254;11.314;2022-07-29T05:15:00;3.15;;;2.92;;
20318;SDS011;10317;47.254;11.314;2022-07-29T05:17:26;2.22;;;2.13;;
20318;SDS011;10317;47.254;11.314;2022-07-29T05:19:52;2.83;;;2.42;;
20318;SDS011;10317;47.254;11.314;2022-07-29T05:22:20;2.55;;;2.33;;
20318;SDS011;10317;47.254;11.314;2022-07-29T05:24:46;2.45;;;2.25;;
20318;SDS011;10317;47.254;11.314;2022-07-29T05:27:12;3.20;;;3.00;;
20318;SDS011;10317;47.254;11.314;2022-07-29T05:29:38;4.05;;;3.60;;
20318;SDS011;10317;47.254;11.314;2022-07-29T05:32:04;3.88;;;3.00;;
20318;SDS011;10317;47.254;11.314;2022-07-29T05:34:30;4.63;;;3.20;;
20318;SDS011;10317;47.254;11.314;2022-07-29T05:36:56;2.72;;;2.55;;
20318;SDS011;10317;47.254;11.314;2022-07-29T05:39:22;2.90;;;2.70;;
20318;SDS011;10317;47.254;11.314;2022-07-29T05:41:48;3.17;;;2.80;;
20318;SDS011;10317;47.254;11.314;2022-07-29T05:44:14;4.45;;;3.40;;
20318;SDS011;10317;47.254;11.314;2022-07-29T05:46:40;3.95;;;2.92;;
20318;SDS011;10317;47.254;11.314;2022-07-29T05:49:06;2.97;;;2.78;;
20318;SDS011;10317;47.254;11.314;2022-07-29T05:51:35;4.45;;;2.67;;
20318;SDS011;10317;47.254;11.314;2022-07-29T05:54:01;2.65;;;2.25;;
20318;SDS011;10317;47.254;11.314;2022-07-29T05:56:27;2.63;;;2.53;;
20318;SDS011;10317;47.254;11.314;2022-07-29T05:58:53;2.53;;;2.40;;
20318;SDS011;10317;47.254;11.314;2022-07-29T06:01:19;2.40;;;2.30;;
20318;SDS011;10317;47.254;11.314;2022-07-29T06:03:45;2.42;;;2.33;;
20318;SDS011;10317;47.254;11.314;2022-07-29T06:06:10;2.72;;;2.63;;
20318;SDS011;10317;47.254;11.314;2022-07-29T06:08:36;3.08;;;2.88;;
20318;SDS011;10317;47.254;11.314;2022-07-29T06:11:03;2.92;;;2.72;;
20318;SDS011;10317;47.254;11.314;2022-07-29T06:13:30;5.40;;;3.20;;
20318;SDS011;10317;47.254;11.314;2022-07-29T06:15:56;2.72;;;2.63;;
20318;SDS011;10317;47.254;11.314;2022-07-29T06:18:22;3.65;;;2.90;;
20318;SDS011;10317;47.254;11.314;2022-07-29T06:20:50;2.42;;;2.22;;
20318;SDS011;10317;47.254;11.314;2022-07-29T06:23:17;2.58;;;2.40;;
20318;SDS011;10317;47.254;11.314;2022-07-29T06:25:43;2.70;;;2.50;;
20318;SDS011;10317;47.254;11.314;2022-07-29T07:23:23;3.45;;;2.75;;
20318;SDS011;10317;47.254;11.314;2022-07-29T07:25:48;2.60;;;2.40;;
20318;SDS011;10317;47.254;11.314;2022-07-29T07:28:14;2.72;;;2.53;;
20318;SDS011;10317;47.254;11.314;2022-07-29T07:30:40;6.28;;;3.03;;
20318;SDS011;10317;47.254;11.314;2022-07-29T07:33:05;2.50;;;2.40;;
20318;SDS011;10317;47.254;11.314;2022-07-29T07:35:31;2.83;;;2.63;;
20318;SDS011;10317;47.254;11.314;2022-07-29T07:37:57;6.15;;;2.67;;
20318;SDS011;10317;47.254;11.314;2022-07-29T07:40:23;2.65;;;2.45;;
20318;SDS011;10317;47.254;11.314;2022-07-29T07:42:49;2.67;;;1.95;;
20318;SDS011;10317;47.254;11.314;2022-07-29T07:45:14;2.58;;;2.47;;
20318;SDS011;10317;47.254;11.314;2022-07-29T07:47:40;2.00;;;1.90;;
20318;SDS011;10317;47.254;11.314;2022-07-29T07:50:07;2.72;;;2.50;;
20318;SDS011;10317;47.254;11.314;2022-07-29T07:52:34;2.13;;;2.03;;
20318;SDS011;10317;47.254;11.314;2022-07-29T07:55:10;4.38;;;1.98;;
20318;SDS011;10317;47.254;11.314;2022-07-29T07:57:36;2.50;;;2.35;;
20318;SDS011;10317;47.254;11.314;2022-07-29T08:00:02;1.98;;;1.90;;
20318;SDS011;10317;47.254;11.314;2022-07-29T08:02:28;2.35;;;2.25;;
20318;SDS011;10317;47.254;11.314;2022-07-29T08:04:54;2.03;;;1.98;;
20318;SDS011;10317;47.254;11.314;2022-07-29T08:07:20;3.63;;;1.77;;
20318;SDS011;10317;47.254;11.314;2022-07-29T08:09:46;2.05;;;1.58;;
20318;SDS011;10317;47.254;11.314;2022-07-29T08:12:11;3.63;;;2.10;;
20318;SDS011;10317;47.254;11.314;2022-07-29T08:14:37;2.65;;;2.15;;
20318;SDS011;10317;47.254;11.314;2022-07-29T08:17:03;2.47;;;2.28;;
20318;SDS011;10317;47.254;11.314;2022-07-29T08:19:28;1.77;;;1.60;;
20318;SDS011;10317;47.254;11.314;2022-07-29T08:21:54;2.65;;;1.90;;
20318;SDS011;10317;47.254;11.314;2022-07-29T08:24:20;1.92;;;1.83;;
20318;SDS011;10317;47.254;11.314;2022-07-29T08:27:05;2.10;;;2.00;;
20318;SDS011;10317;47.254;11.314;2022-07-29T08:29:31;2.00;;;1.90;;
20318;SDS011;10317;47.254;11.314;2022-07-29T08:31:57;2.10;;;2.00;;
20318;SDS011;10317;47.254;11.314;2022-07-29T08:34:22;2.50;;;2.28;;
20318;SDS011;10317;47.254;11.314;2022-07-29T08:36:48;2.00;;;1.90;;
20318;SDS011;10317;47.254;11.314;2022-07-29T08:39:14;1.80;;;1.67;;
20318;SDS011;10317;47.254;11.314;2022-07-29T08:41:39;1.98;;;1.88;;
20318;SDS011;10317;47.254;11.314;2022-07-29T08:44:05;2.20;;;2.10;;
20318;SDS011;10317;47.254;11.314;2022-07-29T08:46:31;2.28;;;2.08;;
20318;SDS011;10317;47.254;11.314;2022-07-29T08:48:56;2.15;;;2.05;;
20318;SDS011;10317;47.254;11.314;2022-07-29T08:51:22;3.20;;;1.92;;
20318;SDS011;10317;47.254;11.314;2022-07-29T08:53:50;2.10;;;2.00;;
20318;SDS011;10317;47.254;11.314;2022-07-29T08:56:17;2.38;;;1.80;;
20318;SDS011;10317;47.254;11.314;2022-07-29T08:58:44;2.17;;;2.08;;
20318;SDS011;10317;47.254;11.314;2022-07-29T09:01:12;2.72;;;2.10;;
20318;SDS011;10317;47.254;11.314;2022-07-29T09:03:40;2.08;;;1.98;;
20318;SDS011;10317;47.254;11.314;2022-07-29T09:06:08;3.00;;;2.40;;
20318;SDS011;10317;47.254;11.314;2022-07-29T09:08:36;2.03;;;1.80;;
20318;SDS011;10317;47.254;11.314;2022-07-29T09:11:02;2.22;;;2.13;;
20318;SDS011;10317;47.254;11.314;2022-07-29T09:13:28;2.40;;;2.30;;
20318;SDS011;10317;47.254;11.314;2022-07-29T09:15:54;2.42;;;2.22;;
20318;SDS011;10317;47.254;11.314;2022-07-29T09:21:06;2.30;;;2.20;;
20318;SDS011;10317;47.254;11.314;2022-07-29T09:24:09;1.80;;;1.70;;
20318;SDS011;10317;47.254;11.314;2022-07-29T09:26:39;1.85;;;1.85;;
20318;SDS011;10317;47.254;11.314;2022-07-29T09:29:07;2.13;;;2.03;;
20318;SDS011;10317;47.254;11.314;2022-07-29T09:31:47;2.38;;;2.17;;
20318;SDS011;10317;47.254;11.314;2022-07-29T09:34:15;3.03;;;1.77;;
20318;SDS011;10317;47.254;11.314;2022-07-29T09:36:46;1.88;;;1.77;;
20318;SDS011;10317;47.254;11.314;2022-07-29T09:39:13;2.28;;;1.92;;
20318;SDS011;10317;47.254;11.314;2022-07-29T09:41:44;1.83;;;1.75;;
20318;SDS011;10317;47.254;11.314;2022-07-29T09:44:09;2.70;;;1.63;;
20318;SDS011;10317;47.254;11.314;2022-07-29T09:46:35;1.70;;;1.60;;
20318;SDS011;10317;47.254;11.314;2022-07-29T10:34:07;3.00;;;1.73;;
20318;SDS011;10317;47.254;11.314;2022-07-29T10:37:10;1.42;;;1.40;;
20318;SDS011;10317;47.254;11.314;2022-07-29T10:40:06;2.03;;;1.88;;
20318;SDS011;10317;47.254;11.314;2022-07-29T10:43:29;1.75;;;1.65;;
20318;SDS011;10317;47.254;11.314;2022-07-29T10:46:00;2.60;;;1.42;;
20318;SDS011;10317;47.254;11.314;2022-07-29T10:48:27;1.10;;;1.10;;
20318;SDS011;10317;47.254;11.314;2022-07-29T10:56:32;1.27;;;1.27;;
20318;SDS011;10317;47.254;11.314;2022-07-29T11:01:43;1.20;;;1.20;;
20318;SDS011;10317;47.254;11.314;2022-07-29T11:04:09;1.75;;;1.30;;
20318;SDS011;10317;47.254;11.314;2022-07-29T11:09:25;1.75;;;1.65;;
20318;SDS011;10317;47.254;11.314;2022-07-29T11:11:51;1.55;;;1.45;;
20318;SDS011;10317;47.254;11.314;2022-07-29T11:14:18;1.52;;;1.50;;
20318;SDS011;10317;47.254;11.314;2022-07-29T11:17:04;1.27;;;1.25;;
20318;SDS011;10317;47.254;11.314;2022-07-29T11:19:32;1.50;;;1.50;;
20318;SDS011;10317;47.254;11.314;2022-07-29T11:21:58;1.67;;;1.48;;
20318;SDS011;10317;47.254;11.314;2022-07-29T11:24:25;1.63;;;1.50;;
20318;SDS011;10317;47.254;11.314;2022-07-29T11:29:40;1.50;;;1.50;;
20318;SDS011;10317;47.254;11.314;2022-07-29T11:32:14;1.75;;;1.70;;
20318;SDS011;10317;47.254;11.314;2022-07-29T11:34:43;1.75;;;1.40;;
20318;SDS011;10317;47.254;11.314;2022-07-29T11:44:56;1.55;;;1.48;;
20318;SDS011;10317;47.254;11.314;2022-07-29T11:47:26;1.45;;;1.38;;
20318;SDS011;10317;47.254;11.314;2022-07-29T11:49:53;1.80;;;1.70;;
20318;SDS011;10317;47.254;11.314;2022-07-29T11:52:23;1.77;;;1.67;;
20318;SDS011;10317;47.254;11.314;2022-07-29T11:54:57;1.75;;;1.65;;
20318;SDS011;10317;47.254;11.314;2022-07-29T11:57:26;2.30;;;2.20;;
20318;SDS011;10317;47.254;11.314;2022-07-29T11:59:53;4.15;;;1.80;;
20318;SDS011;10317;47.254;11.314;2022-07-29T12:02:22;1.58;;;1.58;;
20318;SDS011;10317;47.254;11.314;2022-07-29T12:04:51;2.47;;;1.77;;
20318;SDS011;10317;47.254;11.314;2022-07-29T12:07:19;2.40;;;1.38;;
20318;SDS011;10317;47.254;11.314;2022-07-29T12:09:55;2.10;;;1.90;;
20318;SDS011;10317;47.254;11.314;2022-07-29T12:12:21;2.88;;;1.27;;
20318;SDS011;10317;47.254;11.314;2022-07-29T12:14:47;3.50;;;2.15;;
20318;SDS011;10317;47.254;11.314;2022-07-29T12:17:25;1.80;;;1.70;;
20318;SDS011;10317;47.254;11.314;2022-07-29T12:19:55;1.77;;;1.67;;
20318;SDS011;10317;47.254;11.314;2022-07-29T12:22:26;1.63;;;1.52;;
20318;SDS011;10317;47.254;11.314;2022-07-29T12:24:52;1.38;;;1.38;;
20318;SDS011;10317;47.254;11.314;2022-07-29T12:27:18;1.35;;;1.35;;
20318;SDS011;10317;47.254;11.314;2022-07-29T12:29:45;1.67;;;1.58;;
20318;SDS011;10317;47.254;11.314;2022-07-29T12:32:20;1.67;;;1.58;;
20318;SDS011;10317;47.254;11.314;2022-07-29T12:34:46;1.40;;;1.40;;
20318;SDS011;10317;47.254;11.314;2022-07-29T12:37:11;1.40;;;1.40;;
20318;SDS011;10317;47.254;11.314;2022-07-29T12:39:37;2.05;;;1.20;;
20318;SDS011;10317;47.254;11.314;2022-07-29T12:42:14;1.42;;;1.42;;
20318;SDS011;10317;47.254;11.314;2022-07-29T12:44:44;1.40;;;1.30;;
20318;SDS011;10317;47.254;11.314;2022-07-29T12:47:11;1.40;;;1.30;;
20318;SDS011;10317;47.254;11.314;2022-07-29T12:49:37;1.50;;;1.40;;
20318;SDS011;10317;47.254;11.314;2022-07-29T12:52:22;1.60;;;1.60;;
20318;SDS011;10317;47.254;11.314;2022-07-29T12:54:53;2.72;;;1.42;;
20318;SDS011;10317;47.254;11.314;2022-07-29T12:57:19;1.48;;;1.48;;
20318;SDS011;10317;47.254;11.314;2022-07-29T12:59:45;1.80;;;1.70;;
20318;SDS011;10317;47.254;11.314;2022-07-29T13:02:36;1.73;;;1.40;;
20318;SDS011;10317;47.254;11.314;2022-07-29T13:05:03;2.05;;;1.50;;
20318;SDS011;10317;47.254;11.314;2022-07-29T13:07:31;3.08;;;1.70;;
20318;SDS011;10317;47.254;11.314;2022-07-29T13:13:01;1.52;;;1.50;;
20318;SDS011;10317;47.254;11.314;2022-07-29T13:15:27;1.98;;;1.77;;
20318;SDS011;10317;47.254;11.314;2022-07-29T13:17:52;2.35;;;1.63;;
20318;SDS011;10317;47.254;11.314;2022-07-29T13:20:18;1.90;;;1.75;;
20318;SDS011;10317;47.254;11.314;2022-07-29T13:22:48;1.80;;;1.70;;
20318;SDS011;10317;47.254;11.314;2022-07-29T13:25:15;1.70;;;1.60;;
20318;SDS011;10317;47.254;11.314;2022-07-29T13:27:58;1.70;;;1.60;;
20318;SDS011;10317;47.254;11.314;2022-07-29T13:30:24;5.57;;;1.60;;
20318;SDS011;10317;47.254;11.314;2022-07-29T13:32:51;3.28;;;1.60;;
20318;SDS011;10317;47.254;11.314;2022-07-29T13:35:17;1.65;;;1.52;;
20318;SDS011;10317;47.254;11.314;2022-07-29T13:37:44;5.15;;;1.90;;
20318;SDS011;10317;47.254;11.314;2022-07-29T13:40:11;1.73;;;1.58;;
20318;SDS011;10317;47.254;11.314;2022-07-29T13:42:37;1.80;;;1.70;;
20318;SDS011;10317;47.254;11.314;2022-07-29T13:45:04;2.15;;;2.05;;
20318;SDS011;10317;47.254;11.314;2022-07-29T13:47:31;2.65;;;1.95;;
20318;SDS011;10317;47.254;11.314;2022-07-29T13:49:57;5.70;;;1.98;;
20318;SDS011;10317;47.254;11.314;2022-07-29T13:52:22;1.70;;;1.60;;
20318;SDS011;10317;47.254;11.314;2022-07-29T13:54:48;2.00;;;1.90;;
20318;SDS011;10317;47.254;11.314;2022-07-29T13:57:14;2.88;;;1.77;;
20318;SDS011;10317;47.254;11.314;2022-07-29T13:59:40;1.67;;;1.58;;
20318;SDS011;10317;47.254;11.314;2022-07-29T14:02:07;2.30;;;2.20;;
20318;SDS011;10317;47.254;11.314;2022-07-29T14:35:06;2.80;;;2.20;;
20318;SDS011;10317;47.254;11.314;2022-07-29T14:37:33;2.30;;;2.13;;
20318;SDS011;10317;47.254;11.314;2022-07-29T14:40:00;2.30;;;2.10;;
20318;SDS011;10317;47.254;11.314;2022-07-29T14:42:27;2.95;;;2.40;;
20318;SDS011;10317;47.254;11.314;2022-07-29T14:44:53;2.20;;;2.00;;
20318;SDS011;10317;47.254;11.314;2022-07-29T14:47:19;2.20;;;2.10;;
20318;SDS011;10317;47.254;11.314;2022-07-29T14:49:46;2.55;;;2.20;;
20318;SDS011;10317;47.254;11.314;2022-07-29T14:52:12;2.20;;;2.10;;
20318;SDS011;10317;47.254;11.314;2022-07-29T14:54:37;2.17;;;2.08;;
20318;SDS011;10317;47.254;11.314;2022-07-29T14:57:03;1.95;;;1.58;;
20318;SDS011;10317;47.254;11.314;2022-07-29T14:59:29;3.92;;;1.92;;
20318;SDS011;10317;47.254;11.314;2022-07-29T15:01:55;2.70;;;2.38;;
20318;SDS011;10317;47.254;11.314;2022-07-29T15:04:20;4.00;;;2.13;;
20318;SDS011;10317;47.254;11.314;2022-07-29T15:06:46;4.82;;;1.77;;
20318;SDS011;10317;47.254;11.314;2022-07-29T15:09:12;1.73;;;1.67;;
20318;SDS011;10317;47.254;11.314;2022-07-29T15:11:38;4.65;;;1.90;;
20318;SDS011;10317;47.254;11.314;2022-07-29T15:14:03;2.40;;;2.20;;
20318;SDS011;10317;47.254;11.314;2022-07-29T15:16:30;3.78;;;2.50;;
20318;SDS011;10317;47.254;11.314;2022-07-29T15:18:56;2.20;;;2.00;;
20318;SDS011;10317;47.254;11.314;2022-07-29T15:21:22;2.58;;;2.38;;
20318;SDS011;10317;47.254;11.314;2022-07-29T15:23:49;4.05;;;2.72;;
20318;SDS011;10317;47.254;11.314;2022-07-29T15:26:15;2.60;;;2.40;;
20318;SDS011;10317;47.254;11.314;2022-07-29T15:28:40;2.78;;;2.10;;
20318;SDS011;10317;47.254;11.314;2022-07-29T15:31:06;2.15;;;2.05;;
20318;SDS011;10317;47.254;11.314;2022-07-29T15:33:32;3.95;;;2.42;;
20318;SDS011;10317;47.254;11.314;2022-07-29T15:35:57;3.80;;;2.65;;
20318;SDS011;10317;47.254;11.314;2022-07-29T15:38:23;6.15;;;2.97;;
20318;SDS011;10317;47.254;11.314;2022-07-29T15:40:49;5.28;;;2.78;;
20318;SDS011;10317;47.254;11.314;2022-07-29T15:43:14;6.85;;;3.17;;
20318;SDS011;10317;47.254;11.314;2022-07-29T15:45:41;3.88;;;3.03;;
20318;SDS011;10317;47.254;11.314;2022-07-29T15:48:27;3.80;;;2.58;;
20318;SDS011;10317;47.254;11.314;2022-07-29T15:50:53;3.13;;;2.35;;
20318;SDS011;10317;47.254;11.314;2022-07-29T15:53:18;3.08;;;2.47;;
20318;SDS011;10317;47.254;11.314;2022-07-29T15:55:44;5.80;;;2.40;;
20318;SDS011;10317;47.254;11.314;2022-07-29T15:58:10;2.90;;;2.70;;
20318;SDS011;10317;47.254;11.314;2022-07-29T16:00:35;4.40;;;3.35;;
20318;SDS011;10317;47.254;11.314;2022-07-29T16:03:01;5.18;;;2.78;;
20318;SDS011;10317;47.254;11.314;2022-07-29T16:05:27;5.90;;;3.38;;
20318;SDS011;10317;47.254;11.314;2022-07-29T16:07:54;3.03;;;2.83;;
20318;SDS011;10317;47.254;11.314;2022-07-29T16:10:19;3.42;;;3.17;;
20318;SDS011;10317;47.254;11.314;2022-07-29T16:12:45;3.53;;;2.60;;
20318;SDS011;10317;47.254;11.314;2022-07-29T16:15:11;4.15;;;3.10;;
20318;SDS011;10317;47.254;11.314;2022-07-29T16:17:37;3.33;;;2.80;;
20318;SDS011;10317;47.254;11.314;2022-07-29T16:20:04;3.88;;;2.38;;
20318;SDS011;10317;47.254;11.314;2022-07-29T16:22:30;2.50;;;2.25;;
20318;SDS011;10317;47.254;11.314;2022-07-29T16:24:56;2.63;;;2.42;;
20318;SDS011;10317;47.254;11.314;2022-07-29T16:27:21;3.17;;;2.35;;
20318;SDS011;10317;47.254;11.314;2022-07-29T16:29:51;2.75;;;2.50;;
20318;SDS011;10317;47.254;11.314;2022-07-29T16:32:17;2.10;;;2.00;;
20318;SDS011;10317;47.254;11.314;2022-07-29T16:34:43;2.63;;;2.45;;
20318;SDS011;10317;47.254;11.314;2022-07-29T16:37:08;3.65;;;2.83;;
20318;SDS011;10317;47.254;11.314;2022-07-29T16:39:34;2.60;;;2.40;;
20318;SDS011;10317;47.254;11.314;2022-07-29T16:42:02;2.40;;;2.20;;
20318;SDS011;10317;47.254;11.314;2022-07-29T16:44:28;2.80;;;2.58;;
20318;SDS011;10317;47.254;11.314;2022-07-29T16:46:54;3.15;;;2.47;;
20318;SDS011;10317;47.254;11.314;2022-07-29T16:49:20;2.65;;;2.47;;
20318;SDS011;10317;47.254;11.314;2022-07-29T16:51:45;2.50;;;2.30;;
20318;SDS011;10317;47.254;11.314;2022-07-29T16:54:14;6.63;;;2.78;;
20318;SDS011;10317;47.254;11.314;2022-07-29T16:56:39;3.58;;;2.97;;
20318;SDS011;10317;47.254;11.314;2022-07-29T16:59:05;3.47;;;2.33;;
20318;SDS011;10317;47.254;11.314;2022-07-29T17:01:31;2.75;;;2.53;;
20318;SDS011;10317;47.254;11.314;2022-07-29T17:03:57;3.88;;;2.28;;
20318;SDS011;10317;47.254;11.314;2022-07-29T17:06:35;3.08;;;2.42;;
20318;SDS011;10317;47.254;11.314;2022-07-29T17:09:04;3.05;;;2.72;;
20318;SDS011;10317;47.254;11.314;2022-07-29T17:11:31;3.35;;;2.40;;
20318;SDS011;10317;47.254;11.314;2022-07-29T17:13:57;5.50;;;2.55;;
20318;SDS011;10317;47.254;11.314;2022-07-29T17:16:26;2.95;;;2.28;;
20318;SDS011;10317;47.254;11.314;2022-07-29T17:18:53;2.92;;;2.58;;
20318;SDS011;10317;47.254;11.314;2022-07-29T17:21:20;2.83;;;2.60;;
20318;SDS011;10317;47.254;11.314;2022-07-29T17:23:47;2.63;;;2.45;;
20318;SDS011;10317;47.254;11.314;2022-07-29T17:26:14;2.30;;;2.20;;
20318;SDS011;10317;47.254;11.314;2022-07-29T17:28:39;2.78;;;2.30;;
20318;SDS011;10317;47.254;11.314;2022-07-29T17:31:06;3.60;;;2.33;;
20318;SDS011;10317;47.254;11.314;2022-07-29T17:33:32;2.88;;;2.67;;
20318;SDS011;10317;47.254;11.314;2022-07-29T17:35:58;2.55;;;2.45;;
20318;SDS011;10317;47.254;11.314;2022-07-29T17:38:42;4.45;;;3.00;;
20318;SDS011;10317;47.254;11.314;2022-07-29T17:41:08;2.45;;;2.17;;
20318;SDS011;10317;47.254;11.314;2022-07-29T17:43:34;2.30;;;2.20;;
20318;SDS011;10317;47.254;11.314;2022-07-29T17:45:59;2.40;;;2.30;;
20318;SDS011;10317;47.254;11.314;2022-07-29T17:48:25;2.45;;;2.35;;
20318;SDS011;10317;47.254;11.314;2022-07-29T17:50:51;2.72;;;2.50;;
20318;SDS011;10317;47.254;11.314;2022-07-29T17:53:17;3.70;;;2.33;;
20318;SDS011;10317;47.254;11.314;2022-07-29T17:55:45;2.40;;;2.30;;
20318;SDS011;10317;47.254;11.314;2022-07-29T17:58:14;3.38;;;2.63;;